Time;durP1;ratioP1;P1;durP2;ratioP2;P2;SDS_P1;SDS_P2;PMS_P1;PMS_P2;Temp;Humidity;BMP_temperature;BMP_pressure;BME280_temperature;BME280_humidity;BME280_pressure;Samples;Min_cycle;Max_cycle;Signal;HPM_P1;HPM_P2
2022/11/07 00:02:17;;;;;;;1.60;0.90;;;6.50;99.90;;;;;;5106716;28;20278;-89
2022/11/07 00:04:49;;;;;;;4.50;1.03;;;6.50;99.90;;;;;;5089732;28;20199;-90
2022/11/07 00:07:22;;;;;;;1.40;1.03;;;6.50;99.90;;;;;;5108505;28;20286;-90
2022/11/07 00:09:54;;;;;;;0.73;0.70;;;6.40;99.90;;;;;;5120687;28;20202;-90
2022/11/07 00:12:26;;;;;;;2.03;1.00;;;6.40;99.90;;;;;;5119090;27;20211;-90
2022/11/07 00:14:57;;;;;;;2.37;1.10;;;6.40;99.90;;;;;;5097775;28;20215;-90
2022/11/07 00:17:29;;;;;;;1.57;0.90;;;6.30;99.90;;;;;;5100875;28;20245;-90
2022/11/07 00:20:00;;;;;;;3.70;3.00;;;6.30;99.90;;;;;;5103149;28;20265;-90
2022/11/07 00:22:34;;;;;;;7.20;2.80;;;6.30;99.90;;;;;;5114764;28;20281;-89
2022/11/07 00:25:05;;;;;;;3.13;2.10;;;6.30;99.90;;;;;;5100173;28;20230;-90
2022/11/07 00:27:37;;;;;;;3.60;2.13;;;6.20;99.90;;;;;;5107998;28;20269;-91
2022/11/07 00:30:09;;;;;;;2.57;2.20;;;6.20;99.90;;;;;;5118045;28;20613;-91
2022/11/07 00:32:41;;;;;;;4.37;1.60;;;6.20;99.90;;;;;;5108096;28;20286;-90
2022/11/07 00:35:17;;;;;;;3.03;1.40;;;6.10;99.90;;;;;;5109179;28;20213;-88
2022/11/07 00:37:51;;;;;;;4.70;1.20;;;6.10;99.90;;;;;;5097175;28;20227;-90
2022/11/07 00:40:23;;;;;;;1.73;1.23;;;6.10;99.90;;;;;;5112310;28;20307;-92
2022/11/07 00:42:57;;;;;;;4.23;1.50;;;6.10;99.90;;;;;;5103854;28;20199;-92
2022/11/07 00:45:31;;;;;;;5.90;1.37;;;6.10;99.90;;;;;;5105030;28;20294;-90
2022/11/07 00:48:02;;;;;;;3.47;1.80;;;6.10;99.90;;;;;;5100822;28;20296;-89
2022/11/07 00:50:39;;;;;;;3.23;1.63;;;6.00;99.90;;;;;;5106999;28;20226;-87
2022/11/07 00:53:14;;;;;;;4.03;2.10;;;6.00;99.90;;;;;;5114207;28;20220;-89
2022/11/07 00:55:49;;;;;;;4.53;2.17;;;6.00;99.90;;;;;;5116432;28;20206;-89
2022/11/07 00:58:20;;;;;;;3.60;2.40;;;6.00;99.90;;;;;;5097904;28;20230;-87
2022/11/07 01:00:52;;;;;;;4.20;2.10;;;6.00;99.90;;;;;;5118184;28;20297;-90
2022/11/07 01:06:23;;;;;;;3.40;1.70;;;6.00;99.90;;;;;;5099032;28;20297;-90
2022/11/07 01:08:59;;;;;;;2.10;1.37;;;5.90;99.90;;;;;;5110198;28;20300;-90
2022/11/07 01:11:31;;;;;;;2.00;1.53;;;5.90;99.90;;;;;;5114958;28;20229;-87
2022/11/07 01:14:04;;;;;;;4.03;1.80;;;5.90;99.90;;;;;;5111519;28;20233;-89
2022/11/07 01:16:37;;;;;;;2.97;1.23;;;6.00;99.90;;;;;;5115625;28;20293;-88
2022/11/07 01:19:08;;;;;;;3.37;1.27;;;6.00;99.90;;;;;;5097768;28;20318;-89
2022/11/07 01:21:41;;;;;;;2.97;1.70;;;5.90;99.90;;;;;;5115443;28;20638;-91
2022/11/07 01:24:16;;;;;;;1.70;1.30;;;6.00;99.90;;;;;;5115291;28;20292;-89
2022/11/07 01:26:48;;;;;;;2.23;1.30;;;6.00;99.90;;;;;;5096056;28;20262;-88
2022/11/07 01:29:21;;;;;;;2.53;1.60;;;6.00;99.90;;;;;;5104596;28;20202;-90
2022/11/07 01:31:52;;;;;;;3.70;1.20;;;6.00;99.90;;;;;;5099549;28;20281;-92
2022/11/07 01:34:23;;;;;;;3.43;1.40;;;6.10;99.90;;;;;;5095910;28;20223;-90
2022/11/07 01:36:55;;;;;;;2.03;1.30;;;6.00;99.90;;;;;;5099957;28;20608;-90
2022/11/07 01:39:27;;;;;;;2.57;1.33;;;6.00;99.90;;;;;;5117041;28;20242;-91
2022/11/07 01:41:59;;;;;;;2.13;1.90;;;6.00;99.90;;;;;;5114670;28;20202;-90
2022/11/07 01:44:57;;;;;;;4.23;2.50;;;5.90;99.90;;;;;;5113570;28;20207;-90
2022/11/07 01:47:32;;;;;;;5.20;4.20;;;5.90;99.90;;;;;;5106430;28;20291;-90
2022/11/07 01:50:07;;;;;;;6.30;2.60;;;5.90;99.90;;;;;;5125877;28;20200;-89
2022/11/07 01:52:40;;;;;;;2.73;2.10;;;5.90;99.90;;;;;;5108950;28;20250;-88
2022/11/07 01:55:21;;;;;;;1.83;1.20;;;5.90;99.90;;;;;;5115651;28;20234;-87
2022/11/07 01:57:55;;;;;;;2.07;1.37;;;5.80;99.90;;;;;;5112113;28;20312;-87
2022/11/07 02:00:28;;;;;;;4.00;1.27;;;5.80;99.90;;;;;;5101041;28;20262;-86
2022/11/07 02:03:02;;;;;;;3.67;1.60;;;5.80;99.90;;;;;;5101277;28;20209;-87
2022/11/07 02:05:38;;;;;;;4.00;1.90;;;5.80;99.90;;;;;;5113738;28;20240;-87
2022/11/07 02:08:11;;;;;;;2.83;1.77;;;5.70;99.90;;;;;;5115923;28;20205;-86
2022/11/07 02:10:45;;;;;;;2.30;2.00;;;5.70;99.90;;;;;;5115722;28;20219;-89
2022/11/07 02:13:22;;;;;;;6.07;2.40;;;5.70;99.90;;;;;;5118715;28;20262;-87
2022/11/07 02:15:56;;;;;;;4.27;2.73;;;5.60;99.90;;;;;;5098504;28;20322;-87
2022/11/07 02:18:30;;;;;;;2.83;2.20;;;5.50;99.90;;;;;;5101919;28;20317;-87
2022/11/07 02:21:08;;;;;;;6.50;3.90;;;5.50;99.90;;;;;;5107856;28;20271;-86
2022/11/07 02:23:48;;;;;;;4.60;3.30;;;5.50;99.90;;;;;;5104709;28;20202;-86
2022/11/07 02:26:24;;;;;;;5.90;3.07;;;5.50;99.90;;;;;;5113707;28;20270;-85
2022/11/07 02:28:57;;;;;;;4.77;3.23;;;5.50;99.90;;;;;;5107304;28;20226;-87
2022/11/07 02:31:32;;;;;;;8.43;5.30;;;5.50;99.90;;;;;;5107464;28;20211;-85
2022/11/07 02:34:03;;;;;;;7.47;4.90;;;5.50;99.90;;;;;;5104916;28;20252;-87
2022/11/07 02:36:35;;;;;;;6.50;4.60;;;5.50;99.90;;;;;;5104239;28;20217;-88
2022/11/07 02:39:07;;;;;;;5.70;4.23;;;5.50;99.90;;;;;;5101803;28;20239;-86
2022/11/07 02:41:40;;;;;;;7.63;4.20;;;5.50;99.90;;;;;;5116257;28;20237;-86
2022/11/07 02:44:13;;;;;;;8.53;5.17;;;5.50;99.90;;;;;;5111969;28;20654;-86
2022/11/07 02:46:45;;;;;;;7.03;5.57;;;5.50;99.90;;;;;;5102985;28;20206;-86
2022/11/07 02:49:17;;;;;;;8.67;6.17;;;5.50;99.90;;;;;;5103601;28;20238;-86
2022/11/07 02:51:51;;;;;;;6.63;5.57;;;5.50;99.90;;;;;;5109097;28;20492;-90
2022/11/07 02:54:22;;;;;;;6.50;5.43;;;5.50;99.90;;;;;;5109687;28;20213;-86
2022/11/07 02:56:56;;;;;;;5.60;4.20;;;5.50;99.90;;;;;;5096412;28;20253;-84
2022/11/07 02:59:27;;;;;;;4.30;3.53;;;5.50;99.90;;;;;;5100429;28;20226;-84
2022/11/07 03:02:00;;;;;;;4.10;3.53;;;5.50;99.90;;;;;;5103676;28;20290;-85
2022/11/07 03:04:31;;;;;;;4.37;2.73;;;5.50;99.90;;;;;;5108961;28;20605;-86
2022/11/07 03:07:05;;;;;;;4.50;2.13;;;5.50;99.90;;;;;;5111550;28;20206;-88
2022/11/07 03:09:36;;;;;;;4.10;2.00;;;5.50;99.90;;;;;;4755291;28;10000965;-87
2022/11/07 03:12:10;;;;;;;2.33;1.47;;;5.50;99.90;;;;;;5111954;28;20273;-87
2022/11/07 03:14:42;;;;;;;3.67;1.90;;;5.50;99.90;;;;;;5108642;28;20209;-86
2022/11/07 03:17:13;;;;;;;5.13;1.93;;;5.60;99.90;;;;;;5114758;28;20254;-89
2022/11/07 03:19:45;;;;;;;3.87;1.80;;;5.60;99.90;;;;;;5115551;28;20866;-86
2022/11/07 03:22:17;;;;;;;4.30;2.00;;;5.60;99.90;;;;;;5099051;28;20297;-86
2022/11/07 03:24:49;;;;;;;4.47;2.10;;;5.70;99.90;;;;;;5096656;28;20257;-86
2022/11/07 03:27:22;;;;;;;2.60;2.03;;;5.70;99.90;;;;;;5098700;28;20286;-86
2022/11/07 03:29:53;;;;;;;4.80;2.00;;;5.70;99.90;;;;;;5102991;28;20234;-86
2022/11/07 03:32:26;;;;;;;4.60;1.77;;;5.60;99.90;;;;;;5117476;28;20210;-85
2022/11/07 03:34:59;;;;;;;2.63;1.40;;;5.60;99.90;;;;;;5121585;27;20206;-86
2022/11/07 03:37:31;;;;;;;2.00;1.50;;;5.60;99.90;;;;;;5108834;27;20286;-86
2022/11/07 03:40:04;;;;;;;2.07;1.47;;;5.70;99.90;;;;;;5104249;28;20279;-85
2022/11/07 03:42:42;;;;;;;4.13;1.63;;;5.70;99.90;;;;;;5096706;28;20209;-85
2022/11/07 03:45:15;;;;;;;2.50;1.40;;;5.70;99.90;;;;;;5096073;28;20273;-86
2022/11/07 03:47:48;;;;;;;3.60;1.50;;;5.70;99.90;;;;;;5115782;28;20258;-85
2022/11/07 03:50:20;;;;;;;4.07;1.63;;;5.80;99.90;;;;;;5115457;28;20218;-85
2022/11/07 03:52:52;;;;;;;3.30;1.70;;;5.80;99.90;;;;;;5113680;28;20259;-85
2022/11/07 03:55:24;;;;;;;2.83;1.40;;;5.70;99.90;;;;;;5120833;27;20227;-86
2022/11/07 03:57:58;;;;;;;1.47;1.30;;;5.70;99.90;;;;;;5110517;27;20627;-86
2022/11/07 04:00:30;;;;;;;3.77;1.40;;;5.80;99.90;;;;;;5103213;28;20256;-85
2022/11/07 04:03:03;;;;;;;2.57;1.40;;;5.70;99.90;;;;;;5113413;28;20210;-87
2022/11/07 04:05:34;;;;;;;3.07;1.30;;;5.70;99.90;;;;;;5110955;28;20259;-84
2022/11/07 04:08:05;;;;;;;2.20;1.10;;;5.80;99.90;;;;;;5114462;28;20209;-85
2022/11/07 04:10:36;;;;;;;2.30;1.10;;;5.80;99.90;;;;;;5103474;28;20810;-84
2022/11/07 04:18:55;;;;;;;3.13;1.40;;;5.70;99.90;;;;;;5105608;28;20233;-86
2022/11/07 04:21:26;;;;;;;1.60;1.23;;;5.60;99.90;;;;;;5096571;28;20239;-85
2022/11/07 04:23:57;;;;;;;1.20;1.00;;;5.60;99.90;;;;;;5115879;27;20230;-86
2022/11/07 04:29:20;;;;;;;2.07;1.10;;;5.60;99.90;;;;;;5109064;28;20294;-86
2022/11/07 04:31:52;;;;;;;4.83;1.00;;;5.60;99.90;;;;;;5099775;28;20246;-87
2022/11/07 04:34:24;;;;;;;1.87;1.07;;;5.50;99.90;;;;;;5107159;28;20242;-86
2022/11/07 04:36:55;;;;;;;3.43;0.80;;;5.50;99.90;;;;;;5105803;28;20241;-86
2022/11/07 04:39:29;;;;;;;3.40;1.00;;;5.40;99.90;;;;;;5106986;28;20227;-87
2022/11/07 04:42:02;;;;;;;1.83;1.10;;;5.50;99.90;;;;;;5097098;28;20210;-87
2022/11/07 04:44:35;;;;;;;2.77;0.97;;;5.50;99.90;;;;;;5105458;28;20241;-85
2022/11/07 04:47:10;;;;;;;2.27;1.40;;;5.50;99.90;;;;;;5097891;28;20666;-86
2022/11/07 04:49:43;;;;;;;2.90;1.20;;;5.50;99.90;;;;;;5108087;28;20695;-86
2022/11/07 04:52:14;;;;;;;3.27;1.63;;;5.40;99.90;;;;;;5114773;28;20206;-85
2022/11/07 04:54:45;;;;;;;3.03;0.90;;;5.40;99.90;;;;;;5084759;28;20204;-85
2022/11/07 04:57:18;;;;;;;1.20;0.97;;;5.50;99.90;;;;;;5115619;28;20209;-87
2022/11/07 04:59:52;;;;;;;2.47;1.10;;;5.50;99.90;;;;;;5078097;28;20261;-86
2022/11/07 05:02:25;;;;;;;2.10;1.07;;;5.40;99.90;;;;;;5093983;28;20207;-85
2022/11/07 05:04:56;;;;;;;5.30;0.90;;;5.40;99.90;;;;;;5095437;28;20213;-87
2022/11/07 05:07:29;;;;;;;2.03;1.07;;;5.40;99.90;;;;;;5094238;28;20218;-85
2022/11/07 05:10:00;;;;;;;3.60;1.20;;;5.40;99.90;;;;;;5077349;28;20227;-86
2022/11/07 05:12:32;;;;;;;3.67;1.40;;;5.40;99.90;;;;;;5107002;28;20281;-87
2022/11/07 05:15:07;;;;;;;2.97;1.33;;;5.40;99.90;;;;;;5099260;28;20195;-86
2022/11/07 05:17:38;;;;;;;1.80;1.00;;;5.30;99.90;;;;;;5123198;28;20198;-86
2022/11/07 05:20:22;;;;;;;2.77;1.07;;;5.40;99.90;;;;;;5135738;28;20237;-85
2022/11/07 05:25:43;;;;;;;2.03;1.17;;;5.40;99.90;;;;;;5118908;28;20207;-87
2022/11/07 05:28:20;;;;;;;2.73;1.13;;;5.40;99.90;;;;;;5123000;28;20190;-86
2022/11/07 05:31:06;;;;;;;1.93;1.10;;;5.40;99.90;;;;;;5118459;28;20670;-86
2022/11/07 05:33:38;;;;;;;2.97;0.93;;;5.40;99.90;;;;;;5106788;28;20206;-87
2022/11/07 05:36:14;;;;;;;1.07;0.83;;;5.50;99.90;;;;;;5114542;28;20571;-85
2022/11/07 05:38:49;;;;;;;1.80;0.80;;;5.50;99.90;;;;;;5116793;28;20284;-85
2022/11/07 05:41:23;;;;;;;1.77;0.90;;;5.50;99.90;;;;;;5114255;28;20284;-87
2022/11/07 05:43:57;;;;;;;1.33;0.73;;;5.50;99.90;;;;;;5095342;28;20746;-86
2022/11/07 05:46:30;;;;;;;2.90;0.83;;;5.40;99.90;;;;;;5094281;28;20214;-86
2022/11/07 05:49:01;;;;;;;3.23;1.00;;;5.40;99.90;;;;;;5094624;28;20255;-86
2022/11/07 05:51:33;;;;;;;2.63;0.97;;;5.40;99.90;;;;;;5111858;28;20285;-88
2022/11/07 05:54:04;;;;;;;2.40;0.80;;;5.40;99.90;;;;;;5097720;28;20282;-88
2022/11/07 05:56:36;;;;;;;3.03;0.93;;;5.40;99.90;;;;;;5111623;28;20637;-87
2022/11/07 05:59:07;;;;;;;2.40;0.80;;;5.40;99.90;;;;;;5114219;28;20301;-88
2022/11/07 06:01:40;;;;;;;3.57;1.00;;;5.40;99.90;;;;;;5114384;28;20653;-88
2022/11/07 06:04:13;;;;;;;1.77;0.80;;;5.40;99.90;;;;;;5114665;28;20281;-89
2022/11/07 06:06:44;;;;;;;1.97;0.97;;;5.50;99.90;;;;;;5115011;28;20285;-88
2022/11/07 06:09:16;;;;;;;1.90;1.30;;;5.40;99.90;;;;;;5115014;28;20571;-87
2022/11/07 06:11:47;;;;;;;1.80;1.10;;;5.40;99.90;;;;;;5098736;28;20210;-88
2022/11/07 06:14:18;;;;;;;2.47;0.90;;;5.40;99.90;;;;;;5115244;28;20220;-87
2022/11/07 06:16:52;;;;;;;2.10;1.00;;;5.40;99.90;;;;;;5099887;28;20206;-87
2022/11/07 06:19:23;;;;;;;2.07;1.00;;;5.40;99.90;;;;;;5101040;28;20286;-88
2022/11/07 06:21:54;;;;;;;1.57;0.80;;;5.30;99.90;;;;;;5108084;28;20304;-87
2022/11/07 06:24:26;;;;;;;2.07;1.03;;;5.30;99.90;;;;;;5098514;28;20230;-89
2022/11/07 06:26:57;;;;;;;2.73;1.20;;;5.30;99.90;;;;;;5108758;28;20243;-87
2022/11/07 06:29:28;;;;;;;1.70;1.00;;;5.40;99.90;;;;;;4761926;28;10000469;-88
2022/11/07 06:32:02;;;;;;;3.03;1.20;;;5.30;99.90;;;;;;5120233;28;20186;-88
2022/11/07 06:34:33;;;;;;;4.03;1.10;;;5.40;99.90;;;;;;5122313;28;20225;-87
2022/11/07 06:37:04;;;;;;;1.50;1.10;;;5.30;99.90;;;;;;5107554;28;20654;-88
2022/11/07 06:39:35;;;;;;;2.83;1.20;;;5.30;99.90;;;;;;5113338;28;20237;-88
2022/11/07 06:42:07;;;;;;;1.50;0.93;;;5.40;99.90;;;;;;5103742;28;20245;-88
2022/11/07 06:44:39;;;;;;;5.73;1.30;;;5.30;99.90;;;;;;5100071;28;20988;-87
2022/11/07 06:47:12;;;;;;;2.27;0.93;;;5.30;99.90;;;;;;5098893;28;20534;-89
2022/11/07 06:49:44;;;;;;;2.10;1.20;;;5.30;99.90;;;;;;5103722;28;20285;-89
2022/11/07 06:52:15;;;;;;;2.73;1.00;;;5.20;99.90;;;;;;5102611;28;20234;-87
2022/11/07 06:54:48;;;;;;;2.13;0.80;;;5.20;99.90;;;;;;5105882;28;20281;-88
2022/11/07 06:57:19;;;;;;;1.93;1.00;;;5.20;99.90;;;;;;5119089;28;20630;-88
2022/11/07 06:59:50;;;;;;;0.93;0.80;;;5.20;99.90;;;;;;5111100;28;20253;-88
2022/11/07 07:02:23;;;;;;;1.93;0.80;;;5.20;99.90;;;;;;5110235;28;20234;-88
2022/11/07 07:05:14;;;;;;;2.17;0.90;;;5.20;99.90;;;;;;5095979;28;20211;-87
2022/11/07 07:07:50;;;;;;;1.13;0.77;;;5.20;99.90;;;;;;5101063;28;20197;-88
2022/11/07 07:10:21;;;;;;;2.20;0.70;;;5.20;99.90;;;;;;5105407;28;20290;-89
2022/11/07 07:12:52;;;;;;;1.93;0.73;;;5.10;99.90;;;;;;5099820;28;20230;-88
2022/11/07 07:15:24;;;;;;;1.50;0.60;;;5.10;99.90;;;;;;5111210;28;20297;-88
2022/11/07 07:18:03;;;;;;;0.53;0.50;;;5.00;99.90;;;;;;5103915;28;20230;-87
2022/11/07 07:20:35;;;;;;;2.37;0.87;;;5.00;99.90;;;;;;5116937;28;20292;-89
2022/11/07 07:23:06;;;;;;;2.33;0.80;;;5.00;99.90;;;;;;5103699;28;20309;-88
2022/11/07 07:25:37;;;;;;;1.33;0.80;;;5.00;99.90;;;;;;5125929;28;20202;-88
2022/11/07 07:28:09;;;;;;;1.87;0.83;;;4.90;99.90;;;;;;5112132;28;20835;-89
2022/11/07 07:30:40;;;;;;;1.97;0.50;;;5.00;99.90;;;;;;5107921;28;20206;-88
2022/11/07 07:33:21;;;;;;;1.07;0.53;;;4.90;99.90;;;;;;5110115;28;20264;-89
2022/11/07 07:35:53;;;;;;;1.00;0.67;;;4.90;99.90;;;;;;5101053;28;20262;-88
2022/11/07 07:38:24;;;;;;;1.93;0.60;;;5.00;99.90;;;;;;5098534;28;20213;-88
2022/11/07 07:40:55;;;;;;;1.30;0.60;;;5.00;99.90;;;;;;5115172;28;20230;-89
2022/11/07 07:43:26;;;;;;;1.67;0.60;;;4.90;99.90;;;;;;5081345;28;20244;-90
2022/11/07 07:46:00;;;;;;;2.40;0.73;;;4.90;99.90;;;;;;5111491;28;20206;-88
2022/11/07 07:48:34;;;;;;;1.83;1.00;;;4.80;99.90;;;;;;5114217;28;20202;-88
2022/11/07 07:51:05;;;;;;;2.67;1.27;;;4.80;99.90;;;;;;5107813;28;20238;-88
2022/11/07 07:53:41;;;;;;;3.60;1.40;;;4.90;99.90;;;;;;5096118;28;20215;-87
2022/11/07 07:56:13;;;;;;;1.83;0.97;;;4.80;99.90;;;;;;5110621;28;20265;-88
2022/11/07 07:58:45;;;;;;;2.40;0.97;;;4.90;99.90;;;;;;5116890;28;20319;-88
2022/11/07 08:01:17;;;;;;;4.10;0.90;;;4.90;99.90;;;;;;5121565;28;20798;-88
2022/11/07 08:03:50;;;;;;;2.93;0.93;;;4.90;99.90;;;;;;5122583;28;20210;-87
2022/11/07 08:06:33;;;;;;;1.23;0.50;;;4.80;99.90;;;;;;5119256;28;20194;-88
2022/11/07 08:09:07;;;;;;;0.87;0.80;;;4.80;99.90;;;;;;5116682;28;20204;-88
2022/11/07 08:11:38;;;;;;;1.00;0.40;;;4.70;99.90;;;;;;5103777;28;20266;-88
2022/11/07 08:14:10;;;;;;;2.20;0.60;;;4.70;99.90;;;;;;5099029;28;20240;-88
2022/11/07 08:16:41;;;;;;;2.13;0.77;;;4.70;99.90;;;;;;5111547;28;20230;-88
2022/11/07 08:19:14;;;;;;;0.50;0.50;;;4.70;99.90;;;;;;5107979;28;20281;-89
2022/11/07 08:21:46;;;;;;;1.17;0.70;;;4.70;99.90;;;;;;5108761;28;20630;-88
2022/11/07 08:24:17;;;;;;;0.83;0.50;;;4.60;99.90;;;;;;5114376;28;20242;-89
2022/11/07 08:26:50;;;;;;;2.77;0.70;;;4.60;99.90;;;;;;5114985;28;20230;-89
2022/11/07 08:29:21;;;;;;;0.70;0.60;;;4.70;99.90;;;;;;5115325;28;20309;-88
2022/11/07 08:31:52;;;;;;;0.50;0.50;;;4.70;99.90;;;;;;5114738;28;20281;-93
2022/11/07 08:34:27;;;;;;;1.03;0.60;;;4.70;99.90;;;;;;5115678;28;20701;-88
2022/11/07 08:36:58;;;;;;;4.43;0.70;;;4.70;99.90;;;;;;5115021;28;20522;-88
2022/11/07 08:39:29;;;;;;;1.60;0.60;;;4.60;99.90;;;;;;5124914;28;20205;-88
2022/11/07 08:42:00;;;;;;;2.10;0.60;;;4.70;99.90;;;;;;5130101;28;20225;-88
2022/11/07 08:44:33;;;;;;;1.80;0.60;;;4.70;99.90;;;;;;5124402;28;20202;-88
2022/11/07 08:47:06;;;;;;;1.03;0.40;;;4.70;99.90;;;;;;5115730;28;20577;-89
2022/11/07 08:49:39;;;;;;;1.80;0.50;;;4.70;99.90;;;;;;5115078;28;20617;-89
2022/11/07 08:52:11;;;;;;;2.10;0.50;;;4.80;99.90;;;;;;5114156;28;20293;-88
2022/11/07 08:54:42;;;;;;;1.50;0.33;;;4.80;99.90;;;;;;5114279;28;20216;-89
2022/11/07 08:57:13;;;;;;;1.27;0.37;;;4.80;99.90;;;;;;5114833;28;20257;-88
2022/11/07 08:59:44;;;;;;;0.93;0.53;;;4.80;99.90;;;;;;5114875;28;20325;-88
2022/11/07 09:02:15;;;;;;;0.90;0.50;;;4.80;99.90;;;;;;5113487;28;20233;-88
2022/11/07 09:05:09;;;;;;;1.00;0.33;;;4.80;99.90;;;;;;5114185;28;20302;-88
2022/11/07 09:07:41;;;;;;;1.07;0.40;;;4.80;99.90;;;;;;5114293;28;20321;-88
2022/11/07 09:10:13;;;;;;;2.13;0.70;;;4.80;99.90;;;;;;5116268;28;20376;-88
2022/11/07 09:12:47;;;;;;;0.90;0.50;;;4.80;99.90;;;;;;5112621;28;20240;-88
2022/11/07 09:15:19;;;;;;;2.43;0.70;;;4.70;99.90;;;;;;5113513;28;20278;-89
2022/11/07 09:17:51;;;;;;;1.03;0.60;;;4.80;99.90;;;;;;5114121;28;20274;-88
2022/11/07 09:20:25;;;;;;;1.80;0.77;;;4.80;99.90;;;;;;5099199;28;20202;-87
2022/11/07 09:22:57;;;;;;;1.13;0.43;;;4.80;99.90;;;;;;5112863;28;20325;-87
2022/11/07 09:25:29;;;;;;;3.00;1.17;;;4.80;99.90;;;;;;5116314;28;20341;-89
2022/11/07 09:28:05;;;;;;;1.80;0.80;;;4.80;99.90;;;;;;5116341;28;20202;-90
2022/11/07 09:30:36;;;;;;;2.13;1.10;;;4.70;99.90;;;;;;5098612;28;20356;-88
2022/11/07 09:33:07;;;;;;;1.20;0.97;;;4.80;99.90;;;;;;5115835;28;20663;-89
2022/11/07 09:35:41;;;;;;;1.97;0.80;;;4.80;99.90;;;;;;5113719;28;20214;-89
2022/11/07 09:38:13;;;;;;;1.33;0.87;;;4.80;99.90;;;;;;5114712;28;20233;-88
2022/11/07 09:40:51;;;;;;;1.67;0.60;;;4.80;99.90;;;;;;5096985;28;20210;-88
2022/11/07 09:43:40;;;;;;;1.23;0.93;;;4.90;99.90;;;;;;5112328;28;20320;-88
2022/11/07 09:46:21;;;;;;;1.70;0.50;;;4.90;99.90;;;;;;5113762;28;20278;-88
2022/11/07 09:48:59;;;;;;;3.67;0.50;;;4.90;99.90;;;;;;5113250;28;20285;-88
2022/11/07 09:51:37;;;;;;;1.20;0.60;;;4.80;99.90;;;;;;5113268;28;20625;-88
2022/11/07 09:54:14;;;;;;;1.13;0.50;;;4.90;99.90;;;;;;5111563;28;20732;-88
2022/11/07 09:56:45;;;;;;;0.87;0.40;;;4.80;99.90;;;;;;5112578;28;20308;-89
2022/11/07 09:59:23;;;;;;;0.60;0.40;;;4.90;99.90;;;;;;5113631;28;20252;-88
2022/11/07 10:01:56;;;;;;;0.80;0.40;;;4.80;99.90;;;;;;5113315;28;20237;-91
2022/11/07 10:04:27;;;;;;;1.07;0.37;;;4.80;99.90;;;;;;5112978;28;20961;-88
2022/11/07 10:07:08;;;;;;;1.23;0.40;;;4.70;99.90;;;;;;5112523;28;20367;-89
2022/11/07 10:09:47;;;;;;;1.83;0.60;;;4.80;99.90;;;;;;5096195;28;20198;-88
2022/11/07 10:12:31;;;;;;;1.67;0.50;;;4.70;99.90;;;;;;5111736;28;20230;-88
2022/11/07 10:15:12;;;;;;;0.53;0.50;;;4.70;99.90;;;;;;5096633;28;20224;-88
2022/11/07 10:17:52;;;;;;;1.70;0.50;;;4.70;99.90;;;;;;5112591;28;20202;-88
2022/11/07 10:20:37;;;;;;;1.20;0.50;;;4.70;99.90;;;;;;5113154;28;20293;-88
2022/11/07 10:23:30;;;;;;;1.03;0.43;;;4.60;99.90;;;;;;5111152;28;20603;-88
2022/11/07 10:26:07;;;;;;;1.37;0.50;;;4.60;99.90;;;;;;5112422;28;20244;-89
2022/11/07 10:28:45;;;;;;;1.63;0.80;;;4.50;99.90;;;;;;5112518;28;20225;-89
2022/11/07 10:31:17;;;;;;;1.37;0.50;;;4.40;99.90;;;;;;5112618;28;20281;-88
2022/11/07 10:33:53;;;;;;;0.60;0.40;;;4.40;99.90;;;;;;5111825;28;20241;-87
2022/11/07 10:36:27;;;;;;;1.33;0.40;;;4.40;99.90;;;;;;5112325;28;20206;-88
2022/11/07 10:39:02;;;;;;;0.90;0.50;;;4.30;99.90;;;;;;5113002;28;20198;-88
2022/11/07 10:41:33;;;;;;;1.40;0.53;;;4.30;99.90;;;;;;5095892;28;20865;-90
2022/11/07 10:44:08;;;;;;;0.70;0.37;;;4.30;99.90;;;;;;5111821;28;20326;-88
2022/11/07 10:46:41;;;;;;;1.47;0.60;;;4.30;99.90;;;;;;5113522;28;20202;-89
2022/11/07 10:49:20;;;;;;;0.63;0.60;;;4.30;99.90;;;;;;5120014;28;20198;-89
2022/11/07 10:51:54;;;;;;;1.70;0.73;;;4.20;99.90;;;;;;5124539;28;20230;-90
2022/11/07 10:54:32;;;;;;;1.00;0.60;;;4.30;99.90;;;;;;5120155;28;20755;-85
2022/11/07 10:57:07;;;;;;;1.47;0.80;;;4.30;99.90;;;;;;5118225;28;20305;-88
2022/11/07 10:59:41;;;;;;;0.80;0.70;;;4.20;99.90;;;;;;5101379;28;20910;-88
2022/11/07 11:02:22;;;;;;;0.90;0.80;;;4.20;99.90;;;;;;5120877;28;20201;-89
2022/11/07 11:04:55;;;;;;;2.30;0.97;;;4.20;99.90;;;;;;5099006;28;20214;-88
2022/11/07 11:07:33;;;;;;;1.70;0.63;;;4.20;99.90;;;;;;5116596;28;20558;-88
2022/11/07 11:10:20;;;;;;;1.73;0.57;;;4.10;99.90;;;;;;5119925;28;20258;-88
2022/11/07 11:12:51;;;;;;;1.17;0.67;;;4.10;99.90;;;;;;5115699;28;20245;-88
2022/11/07 11:15:25;;;;;;;0.97;0.47;;;4.10;99.90;;;;;;5116329;28;20202;-89
2022/11/07 11:18:06;;;;;;;1.30;0.67;;;4.00;99.90;;;;;;5125044;28;20216;-89
2022/11/07 11:20:40;;;;;;;0.60;0.60;;;3.90;99.90;;;;;;5116842;28;20285;-88
2022/11/07 11:23:20;;;;;;;0.60;0.40;;;4.00;99.90;;;;;;5131415;28;20226;-89
2022/11/07 11:25:59;;;;;;;1.87;0.50;;;4.00;99.90;;;;;;5115932;28;20194;-87
2022/11/07 11:28:35;;;;;;;1.53;0.70;;;3.90;99.90;;;;;;5133172;28;20226;-88
2022/11/07 11:31:12;;;;;;;1.00;0.70;;;3.90;99.90;;;;;;5106465;28;20274;-88
2022/11/07 11:33:46;;;;;;;0.77;0.60;;;3.80;99.90;;;;;;5116409;28;20226;-89
2022/11/07 11:36:19;;;;;;;1.80;0.70;;;3.80;99.90;;;;;;5116745;28;20212;-89
2022/11/07 11:38:53;;;;;;;0.57;0.47;;;3.70;99.90;;;;;;5116009;28;20626;-89
2022/11/07 11:41:36;;;;;;;0.70;0.70;;;3.70;99.90;;;;;;5115996;28;20198;-88
2022/11/07 11:44:15;;;;;;;1.23;1.00;;;3.60;99.90;;;;;;5114900;28;20260;-86
2022/11/07 11:46:54;;;;;;;0.63;0.63;;;3.50;99.90;;;;;;5115299;28;20216;-89
2022/11/07 11:49:36;;;;;;;0.90;0.80;;;3.40;99.90;;;;;;5115652;28;20283;-89
2022/11/07 11:52:12;;;;;;;0.90;0.80;;;3.40;99.90;;;;;;5114894;28;20266;-90
2022/11/07 11:54:44;;;;;;;1.87;1.10;;;3.30;99.90;;;;;;5115499;28;20617;-89
2022/11/07 11:57:24;;;;;;;0.97;0.97;;;3.20;99.90;;;;;;5115732;28;20214;-91
2022/11/07 12:00:07;;;;;;;0.80;0.80;;;3.20;99.90;;;;;;5115617;28;20229;-91
2022/11/07 12:02:59;;;;;;;0.97;0.90;;;3.10;99.90;;;;;;5114065;28;20269;-90
2022/11/07 12:06:14;;;;;;;1.20;0.87;;;3.10;99.90;;;;;;5116092;28;20222;-90
2022/11/07 12:09:07;;;;;;;2.57;1.10;;;3.10;99.90;;;;;;5031655;28;20299;-90
2022/11/07 12:12:00;;;;;;;0.80;0.80;;;3.00;99.90;;;;;;5094557;28;20222;-90
2022/11/07 12:15:03;;;;;;;2.07;1.03;;;3.10;99.90;;;;;;5096681;28;20256;-90
2022/11/07 12:17:42;;;;;;;0.80;0.80;;;3.00;99.90;;;;;;5094228;28;20199;-89
2022/11/07 12:20:20;;;;;;;1.50;1.00;;;3.00;99.90;;;;;;5094469;28;20826;-92
2022/11/07 12:23:08;;;;;;;1.57;1.10;;;2.90;99.90;;;;;;5097464;28;20831;-90
2022/11/07 12:25:45;;;;;;;0.90;0.90;;;2.90;99.90;;;;;;5093895;28;20205;-92
2022/11/07 12:28:41;;;;;;;1.20;1.00;;;2.90;99.90;;;;;;5097464;28;20314;-91
2022/11/07 12:31:27;;;;;;;1.27;1.10;;;2.90;99.90;;;;;;5094276;28;20203;-89
2022/11/07 12:34:11;;;;;;;1.20;1.10;;;3.00;99.90;;;;;;5096455;28;20217;-89
2022/11/07 12:36:58;;;;;;;1.33;1.20;;;3.00;99.90;;;;;;5094774;28;20623;-89
2022/11/07 12:39:46;;;;;;;1.50;1.40;;;3.10;99.90;;;;;;5113213;28;20271;-89
2022/11/07 12:42:27;;;;;;;1.20;1.10;;;3.10;99.90;;;;;;5113930;28;20202;-88
2022/11/07 12:45:08;;;;;;;2.77;1.30;;;3.10;99.90;;;;;;5114193;28;20662;-88
2022/11/07 12:47:57;;;;;;;2.47;1.63;;;3.20;99.90;;;;;;5114755;28;20202;-88
2022/11/07 12:50:41;;;;;;;1.37;1.27;;;3.20;99.90;;;;;;5115204;28;20194;-88
2022/11/07 12:53:26;;;;;;;1.17;1.00;;;3.30;99.90;;;;;;5113991;28;20297;-88
2022/11/07 12:56:03;;;;;;;2.10;1.37;;;3.20;99.90;;;;;;5115108;28;20202;-88
2022/11/07 12:58:38;;;;;;;1.33;1.23;;;3.30;99.90;;;;;;5097086;28;20202;-87
2022/11/07 13:01:12;;;;;;;1.30;1.10;;;3.30;99.90;;;;;;5114531;28;20240;-88
2022/11/07 13:04:01;;;;;;;1.50;1.20;;;3.20;99.90;;;;;;5095185;28;20215;-88
2022/11/07 13:06:40;;;;;;;1.57;1.30;;;3.20;99.90;;;;;;5095059;28;20694;-88
2022/11/07 13:09:21;;;;;;;1.47;1.37;;;3.20;99.90;;;;;;5093594;28;20207;-89
2022/11/07 13:12:01;;;;;;;1.20;1.10;;;3.30;99.90;;;;;;5092531;28;20202;-91
2022/11/07 13:14:35;;;;;;;2.20;1.50;;;3.30;99.90;;;;;;5093776;28;20218;-88
2022/11/07 13:17:16;;;;;;;1.57;1.20;;;3.30;99.90;;;;;;5093833;28;20244;-88
2022/11/07 13:19:59;;;;;;;1.43;1.30;;;3.40;99.90;;;;;;5093860;28;20289;-88
2022/11/07 13:22:37;;;;;;;1.10;1.00;;;3.40;99.90;;;;;;5092483;28;20202;-89
2022/11/07 13:25:25;;;;;;;1.53;1.10;;;3.40;99.90;;;;;;5093012;28;20721;-89
2022/11/07 13:28:23;;;;;;;1.20;1.10;;;3.40;99.90;;;;;;5093535;28;20596;-88
2022/11/07 13:30:57;;;;;;;1.10;1.00;;;3.50;99.90;;;;;;5093246;28;20238;-88
2022/11/07 13:33:36;;;;;;;2.10;1.20;;;3.50;99.90;;;;;;5092422;28;20207;-88
2022/11/07 13:36:16;;;;;;;5.73;1.20;;;3.50;99.90;;;;;;5093349;28;20266;-88
2022/11/07 13:38:53;;;;;;;1.00;0.90;;;3.50;99.90;;;;;;5106848;28;20241;-89
2022/11/07 13:41:26;;;;;;;1.20;0.83;;;3.60;99.90;;;;;;5113958;28;20206;-88
2022/11/07 13:44:00;;;;;;;1.20;1.10;;;3.60;99.90;;;;;;5113229;28;20302;-87
2022/11/07 13:46:35;;;;;;;1.33;1.20;;;3.60;99.90;;;;;;5113872;28;20201;-88
2022/11/07 13:49:15;;;;;;;1.20;1.10;;;3.60;99.90;;;;;;5113847;28;20673;-87
2022/11/07 13:51:49;;;;;;;1.20;1.10;;;3.70;99.90;;;;;;5115865;28;20262;-89
2022/11/07 13:54:27;;;;;;;1.27;1.10;;;3.60;99.90;;;;;;5113463;28;20289;-89